(°C)
20°
20°
19°
19°
18°
18°
18°
(°C)
22°
21°
21°
20°
20°
19°
19°
NW
NW
NW
NW
NW
NNW
NNW
(km/h)
7-13
6-12
5-12
5-12
5-12
5-12
5-12
(mm)
0
0
0
0
0
0
0
(%)
2
2
1
1
1
0
0

Elevazione del sole

/ -31.1°
sun-icon
UV 10
05:44
20:01
Luna crescente (71°)
11:41
24:00

METAR per San Diego (KSAN)

Ora Condizioni Temperatura/
Punto di rugiada
Vento Visibilità Meteo Nuvole Pressione Cambiamento Grezzo
MVFR 20.6°C / 16.7°C 290º 5kt >10km - Broken Clouds 1800ft 1014 - KSAN 060551Z 29005KT 10SM BKN018 21/17 A2997 RMK AO2 SLP147 T02060167 10217 20200 51010
MVFR 20.6°C / 16.7°C 280º 3kt >10km - Broken Clouds 1600ft 1014 - KSAN 060451Z 28003KT 10SM BKN016 21/17 A2996 RMK AO2 SLP145 T02060167
MVFR 20°C / 15.6°C 290º 6kt >10km - Broken Clouds 1700ft 1014 - KSAN 060351Z 29006KT 10SM BKN017 20/16 A2995 RMK AO2 SLP141 T02000156
MVFR 20°C / 15.6°C variable 6kt >10km - Broken Clouds 1800ft 1013 - KSAN 060251Z VRB06KT 10SM BKN018 20/16 A2994 RMK AO2 SLP137 T02000156 53000
MVFR 20°C / 15.6°C 300º 6kt >10km - Broken Clouds 1800ft 1013 - KSAN 060151Z 30006KT 10SM BKN018 20/16 A2993 RMK AO2 SLP135 BKN V SCT T02000156
MVFR 20.6°C / 15.6°C 290º 9kt >10km - Broken Clouds 1800ft 1013 - KSAN 060051Z 29009KT 10SM BKN018 21/16 A2993 RMK AO2 SLP134 T02060156
MVFR 21.1°C / 15.6°C 300º 7kt >10km - Broken Clouds 1800ft - KSAN 060020Z 30007KT 10SM BKN018 21/16 A2993 RMK AO2 T02110156
VFR 21.1°C / 15.6°C 290º 7kt >10km - Scattered Clouds 2000ft 1013 - KSAN 052351Z 29007KT 10SM SCT020 21/16 A2994 RMK AO2 SLP137 SCT V BKN T02110156 10222 20206 56009
VFR 21.7°C / 15°C 290º 8kt Gust 14kt >10km - Scattered Clouds 2100ft 1013 - KSAN 052251Z 29008G14KT 10SM SCT021 22/15 A2994 RMK AO2 SLP139 SCT V BKN T02170150
VFR 21.1°C / 15°C 260º 8kt >10km - Scattered Clouds 2200ft 1014 - KSAN 052151Z 26008KT 10SM SCT022 21/15 A2995 RMK AO2 SLP143 T02110150
VFR 21.7°C / 14.4°C 230º 7kt >10km - Scattered Clouds 2300ft 1014 - KSAN 052051Z 23007KT 10SM SCT023 22/14 A2996 RMK AO2 SLP146 T02170144 58004
VFR 21.7°C / 15°C 220º 8kt >10km - Scattered Clouds 2300ft 1014 - KSAN 051951Z 22008KT 10SM SCT023 22/15 A2997 RMK AO2 SLP148 T02170150
VFR 21.1°C / 15°C 200º 8kt >10km - Scattered Clouds 2300ft 1014 - KSAN 051851Z 20008KT 10SM SCT023 21/15 A2997 RMK AO2 SLP149 T02110150
VFR 20.6°C / 13.9°C variable 6kt >10km - Scattered Clouds 2300ft 1015 - KSAN 051751Z VRB06KT 10SM SCT023 21/14 A2997 RMK AO2 SLP150 T02060139 10211 20189 58001
VFR 20.6°C / 13.9°C variable 5kt >10km - Scattered Clouds 2300ft - KSAN 051728Z VRB05KT 10SM SCT023 21/14 A2998 RMK AO2 T02060139
MVFR 20°C / 13.9°C 230º 7kt >10km - Broken Clouds 2300ft 1015 - KSAN 051651Z 23007KT 10SM BKN023 20/14 A2998 RMK AO2 SLP151 T02000139
MVFR 19.4°C / 13.9°C 270º 4kt >10km - Broken Clouds 2200ft 1015 - KSAN 051551Z 27004KT 10SM BKN022 19/14 A2998 RMK AO2 SLP152 T01940139
MVFR 19.4°C / 13.9°C 150º 5kt >10km - Broken Clouds 2100ft 1015 - KSAN 051451Z 15005KT 10SM BKN021 19/14 A2998 RMK AO2 SLP150 T01940139 53008
MVFR 19.4°C / 14.4°C 140º 5kt >10km - Broken Clouds 2100ft 1014 - KSAN 051351Z 14005KT 10SM BKN021 19/14 A2997 RMK AO2 SLP147 T01940144
MVFR 19.4°C / 14.4°C 130º 4kt >10km - Overcast 1800ft 1014 - KSAN 051251Z 13004KT 10SM OVC018 19/14 A2996 RMK AO2 SLP143 T01940144
MVFR 18.9°C / 14.4°C 140º 4kt >10km - Overcast 1900ft 1014 - KSAN 051151Z 14004KT 10SM OVC019 19/14 A2995 RMK AO2 SLP142 T01890144 10189 20183 55002
MVFR 18.9°C / 14.4°C 190º 3kt >10km - Overcast 1900ft 1014 - KSAN 051051Z 19003KT 10SM OVC019 19/14 A2995 RMK AO2 SLP142 T01890144
MVFR 18.9°C / 13.9°C 100º 4kt >10km - Broken Clouds 1900ft 1014 - KSAN 050951Z 10004KT 9SM BKN019 19/14 A2995 RMK AO2 SLP142 T01890139
MVFR 18.9°C / 14.4°C variable 0kt >10km - Broken Clouds 1900ft 1014 - KSAN 050851Z 00000KT 10SM BKN019 19/14 A2996 RMK AO2 SLP144 T01890144 57007

MVFR

20.6°C / 16.7°C

[Più]
Vento 290º 5kt
Visibilità >10km
Meteo -
Nuvole Broken Clouds 1800ft
Pressione 1014
Cambiamento -
Grezzo KSAN 060551Z 29005KT 10SM BKN018 21/17 A2997 RMK AO2 SLP147 T02060167 10217 20200 51010

MVFR

20.6°C / 16.7°C

[Più]
Vento 280º 3kt
Visibilità >10km
Meteo -
Nuvole Broken Clouds 1600ft
Pressione 1014
Cambiamento -
Grezzo KSAN 060451Z 28003KT 10SM BKN016 21/17 A2996 RMK AO2 SLP145 T02060167

MVFR

20°C / 15.6°C

[Più]
Vento 290º 6kt
Visibilità >10km
Meteo -
Nuvole Broken Clouds 1700ft
Pressione 1014
Cambiamento -
Grezzo KSAN 060351Z 29006KT 10SM BKN017 20/16 A2995 RMK AO2 SLP141 T02000156

MVFR

20°C / 15.6°C

[Più]
Vento variable 6kt
Visibilità >10km
Meteo -
Nuvole Broken Clouds 1800ft
Pressione 1013
Cambiamento -
Grezzo KSAN 060251Z VRB06KT 10SM BKN018 20/16 A2994 RMK AO2 SLP137 T02000156 53000

MVFR

20°C / 15.6°C

[Più]
Vento 300º 6kt
Visibilità >10km
Meteo -
Nuvole Broken Clouds 1800ft
Pressione 1013
Cambiamento -
Grezzo KSAN 060151Z 30006KT 10SM BKN018 20/16 A2993 RMK AO2 SLP135 BKN V SCT T02000156

MVFR

20.6°C / 15.6°C

[Più]
Vento 290º 9kt
Visibilità >10km
Meteo -
Nuvole Broken Clouds 1800ft
Pressione 1013
Cambiamento -
Grezzo KSAN 060051Z 29009KT 10SM BKN018 21/16 A2993 RMK AO2 SLP134 T02060156

MVFR

21.1°C / 15.6°C

[Più]
Vento 300º 7kt
Visibilità >10km
Meteo -
Nuvole Broken Clouds 1800ft
Pressione
Cambiamento -
Grezzo KSAN 060020Z 30007KT 10SM BKN018 21/16 A2993 RMK AO2 T02110156

VFR

21.1°C / 15.6°C

[Più]
Vento 290º 7kt
Visibilità >10km
Meteo -
Nuvole Scattered Clouds 2000ft
Pressione 1013
Cambiamento -
Grezzo KSAN 052351Z 29007KT 10SM SCT020 21/16 A2994 RMK AO2 SLP137 SCT V BKN T02110156 10222 20206 56009

VFR

21.7°C / 15°C

[Più]
Vento 290º 8kt Gust 14kt
Visibilità >10km
Meteo -
Nuvole Scattered Clouds 2100ft
Pressione 1013
Cambiamento -
Grezzo KSAN 052251Z 29008G14KT 10SM SCT021 22/15 A2994 RMK AO2 SLP139 SCT V BKN T02170150

VFR

21.1°C / 15°C

[Più]
Vento 260º 8kt
Visibilità >10km
Meteo -
Nuvole Scattered Clouds 2200ft
Pressione 1014
Cambiamento -
Grezzo KSAN 052151Z 26008KT 10SM SCT022 21/15 A2995 RMK AO2 SLP143 T02110150

VFR

21.7°C / 14.4°C

[Più]
Vento 230º 7kt
Visibilità >10km
Meteo -
Nuvole Scattered Clouds 2300ft
Pressione 1014
Cambiamento -
Grezzo KSAN 052051Z 23007KT 10SM SCT023 22/14 A2996 RMK AO2 SLP146 T02170144 58004

VFR

21.7°C / 15°C

[Più]
Vento 220º 8kt
Visibilità >10km
Meteo -
Nuvole Scattered Clouds 2300ft
Pressione 1014
Cambiamento -
Grezzo KSAN 051951Z 22008KT 10SM SCT023 22/15 A2997 RMK AO2 SLP148 T02170150

VFR

21.1°C / 15°C

[Più]
Vento 200º 8kt
Visibilità >10km
Meteo -
Nuvole Scattered Clouds 2300ft
Pressione 1014
Cambiamento -
Grezzo KSAN 051851Z 20008KT 10SM SCT023 21/15 A2997 RMK AO2 SLP149 T02110150

VFR

20.6°C / 13.9°C

[Più]
Vento variable 6kt
Visibilità >10km
Meteo -
Nuvole Scattered Clouds 2300ft
Pressione 1015
Cambiamento -
Grezzo KSAN 051751Z VRB06KT 10SM SCT023 21/14 A2997 RMK AO2 SLP150 T02060139 10211 20189 58001

VFR

20.6°C / 13.9°C

[Più]
Vento variable 5kt
Visibilità >10km
Meteo -
Nuvole Scattered Clouds 2300ft
Pressione
Cambiamento -
Grezzo KSAN 051728Z VRB05KT 10SM SCT023 21/14 A2998 RMK AO2 T02060139

MVFR

20°C / 13.9°C

[Più]
Vento 230º 7kt
Visibilità >10km
Meteo -
Nuvole Broken Clouds 2300ft
Pressione 1015
Cambiamento -
Grezzo KSAN 051651Z 23007KT 10SM BKN023 20/14 A2998 RMK AO2 SLP151 T02000139

MVFR

19.4°C / 13.9°C

[Più]
Vento 270º 4kt
Visibilità >10km
Meteo -
Nuvole Broken Clouds 2200ft
Pressione 1015
Cambiamento -
Grezzo KSAN 051551Z 27004KT 10SM BKN022 19/14 A2998 RMK AO2 SLP152 T01940139

MVFR

19.4°C / 13.9°C

[Più]
Vento 150º 5kt
Visibilità >10km
Meteo -
Nuvole Broken Clouds 2100ft
Pressione 1015
Cambiamento -
Grezzo KSAN 051451Z 15005KT 10SM BKN021 19/14 A2998 RMK AO2 SLP150 T01940139 53008

MVFR

19.4°C / 14.4°C

[Più]
Vento 140º 5kt
Visibilità >10km
Meteo -
Nuvole Broken Clouds 2100ft
Pressione 1014
Cambiamento -
Grezzo KSAN 051351Z 14005KT 10SM BKN021 19/14 A2997 RMK AO2 SLP147 T01940144

MVFR

19.4°C / 14.4°C

[Più]
Vento 130º 4kt
Visibilità >10km
Meteo -
Nuvole Overcast 1800ft
Pressione 1014
Cambiamento -
Grezzo KSAN 051251Z 13004KT 10SM OVC018 19/14 A2996 RMK AO2 SLP143 T01940144

MVFR

18.9°C / 14.4°C

[Più]
Vento 140º 4kt
Visibilità >10km
Meteo -
Nuvole Overcast 1900ft
Pressione 1014
Cambiamento -
Grezzo KSAN 051151Z 14004KT 10SM OVC019 19/14 A2995 RMK AO2 SLP142 T01890144 10189 20183 55002

MVFR

18.9°C / 14.4°C

[Più]
Vento 190º 3kt
Visibilità >10km
Meteo -
Nuvole Overcast 1900ft
Pressione 1014
Cambiamento -
Grezzo KSAN 051051Z 19003KT 10SM OVC019 19/14 A2995 RMK AO2 SLP142 T01890144

MVFR

18.9°C / 13.9°C

[Più]
Vento 100º 4kt
Visibilità >10km
Meteo -
Nuvole Broken Clouds 1900ft
Pressione 1014
Cambiamento -
Grezzo KSAN 050951Z 10004KT 9SM BKN019 19/14 A2995 RMK AO2 SLP142 T01890139

MVFR

18.9°C / 14.4°C

[Più]
Vento variable 0kt
Visibilità >10km
Meteo -
Nuvole Broken Clouds 1900ft
Pressione 1014
Cambiamento -
Grezzo KSAN 050851Z 00000KT 10SM BKN019 19/14 A2996 RMK AO2 SLP144 T01890144 57007

TAF per San Diego (KSAN)

From till


From till Wind 290º 5kt. Visibility 10km or more. Overcast 1700ft.
From till Wind 280º 5kt. Visibility 10km or more. Scattered Clouds 2000ft.
From till Wind 290º 12kt. Visibility 10km or more. Few Clouds 2000ft.
From till Wind 280º 8kt. Visibility 10km or more. Broken Clouds 1500ft.
From till Wind variable 4kt. Visibility 10km or more. Broken Clouds 1500ft.

Grezzo: KSAN 060520Z 0606/0712 29005KT P6SM OVC017 FM061730 28005KT P6SM SCT020 FM061900 29012KT P6SM FEW020 FM070100 28008KT P6SM BKN015 FM070400 VRB04KT P6SM BKN015

Radar e nowcasting per San Diego

Pioviggine
Lieve
Moderato
Forte
Molto forte
Grandine

Il segnaposto è situato a San Diego. Questa animazione mostra il radar delle precipitazioni per l'ultima ora, nonché una previsione 1h. Una pioviggine o una leggera caduta di neve potrebbero essere invisibili per il radar. L'intensità delle precipitazioni è codificata a colori, dal blu chiaro all'arancione.

Immagine satellitare per San Diego, Stati Uniti

Il segnaposto è situato a San Diego. [Più]

L'immagine satellitare in tempo reale combina la luce visibile durante il giorno con la radiazione infrarossa durante la notte. Di notte l'immagine non è scura poiché i raggi infrarossi possono rilevare differenze di temperatura. Purtroppo, le nuvole basse e la nebbia sono difficili da distinguere dalla temperatura del suolo e possono pertanto essere quasi invisibili durante la notte. Le immagini satellitari Meteosat per l'Europa vengono aggiornate in tempo reale ogni 5 minuti. Le immagini GOES-16 / GOES-17 (Nord e Sud America) e Himawari (Asia) vengono aggiornate ogni 10 minuti.

Tornare su